sensor_id;sensor_type;location;lat;lon;timestamp;pressure;altitude;pressure_sealevel;temperature
35582;BMP180;21687;48.900;9.188;2023-04-15T00:02:20;97465.00;;;2.30
35582;BMP180;21687;48.900;9.188;2023-04-15T00:04:47;97466.00;;;2.20
35582;BMP180;21687;48.900;9.188;2023-04-15T00:07:13;97464.00;;;2.20
35582;BMP180;21687;48.900;9.188;2023-04-15T00:09:41;97461.00;;;2.20
35582;BMP180;21687;48.900;9.188;2023-04-15T00:12:08;97466.00;;;2.20
35582;BMP180;21687;48.900;9.188;2023-04-15T00:14:35;97455.00;;;2.20
35582;BMP180;21687;48.900;9.188;2023-04-15T00:17:02;97456.00;;;2.10
35582;BMP180;21687;48.900;9.188;2023-04-15T00:19:28;97464.00;;;2.10
35582;BMP180;21687;48.900;9.188;2023-04-15T00:21:55;97459.00;;;2.10
35582;BMP180;21687;48.900;9.188;2023-04-15T00:24:22;97452.00;;;2.00
35582;BMP180;21687;48.900;9.188;2023-04-15T00:26:49;97461.00;;;2.00
35582;BMP180;21687;48.900;9.188;2023-04-15T00:29:15;97462.00;;;1.90
35582;BMP180;21687;48.900;9.188;2023-04-15T00:31:41;97455.00;;;2.00
35582;BMP180;21687;48.900;9.188;2023-04-15T00:34:08;97463.00;;;2.00
35582;BMP180;21687;48.900;9.188;2023-04-15T00:36:34;97453.00;;;1.90
35582;BMP180;21687;48.900;9.188;2023-04-15T00:39:01;97452.00;;;1.90
35582;BMP180;21687;48.900;9.188;2023-04-15T00:41:28;97449.00;;;1.80
35582;BMP180;21687;48.900;9.188;2023-04-15T00:43:54;97450.00;;;1.90
35582;BMP180;21687;48.900;9.188;2023-04-15T00:46:22;97454.00;;;1.90
35582;BMP180;21687;48.900;9.188;2023-04-15T00:48:48;97441.00;;;1.90
35582;BMP180;21687;48.900;9.188;2023-04-15T00:51:16;97450.00;;;1.90
35582;BMP180;21687;48.900;9.188;2023-04-15T00:53:42;97444.00;;;2.00
35582;BMP180;21687;48.900;9.188;2023-04-15T00:56:09;97451.00;;;2.20
35582;BMP180;21687;48.900;9.188;2023-04-15T00:58:35;97459.00;;;2.20
35582;BMP180;21687;48.900;9.188;2023-04-15T01:01:02;97452.00;;;2.20
35582;BMP180;21687;48.900;9.188;2023-04-15T01:03:29;97458.00;;;2.20
35582;BMP180;21687;48.900;9.188;2023-04-15T01:05:56;97467.00;;;2.10
35582;BMP180;21687;48.900;9.188;2023-04-15T01:08:28;97464.00;;;2.10
35582;BMP180;21687;48.900;9.188;2023-04-15T01:11:00;97463.00;;;2.00
35582;BMP180;21687;48.900;9.188;2023-04-15T01:13:28;97451.00;;;1.80
35582;BMP180;21687;48.900;9.188;2023-04-15T01:15:56;97456.00;;;1.70
35582;BMP180;21687;48.900;9.188;2023-04-15T01:18:23;97466.00;;;1.60
35582;BMP180;21687;48.900;9.188;2023-04-15T01:20:49;97459.00;;;1.50
35582;BMP180;21687;48.900;9.188;2023-04-15T01:23:16;97433.00;;;1.50
35582;BMP180;21687;48.900;9.188;2023-04-15T01:25:43;97460.00;;;1.40
35582;BMP180;21687;48.900;9.188;2023-04-15T01:28:10;97454.00;;;1.40
35582;BMP180;21687;48.900;9.188;2023-04-15T01:30:36;97453.00;;;1.40
35582;BMP180;21687;48.900;9.188;2023-04-15T01:33:03;97456.00;;;1.40
35582;BMP180;21687;48.900;9.188;2023-04-15T01:35:29;97454.00;;;1.40
35582;BMP180;21687;48.900;9.188;2023-04-15T01:38:07;97452.00;;;1.40
35582;BMP180;21687;48.900;9.188;2023-04-15T01:40:34;97442.00;;;1.30
35582;BMP180;21687;48.900;9.188;2023-04-15T01:43:03;97452.00;;;1.40
35582;BMP180;21687;48.900;9.188;2023-04-15T01:45:29;97448.00;;;1.40
35582;BMP180;21687;48.900;9.188;2023-04-15T01:47:56;97441.00;;;1.40
35582;BMP180;21687;48.900;9.188;2023-04-15T01:50:22;97452.00;;;1.50
35582;BMP180;21687;48.900;9.188;2023-04-15T01:52:49;97446.00;;;1.40
35582;BMP180;21687;48.900;9.188;2023-04-15T01:55:15;97439.00;;;1.30
35582;BMP180;21687;48.900;9.188;2023-04-15T01:57:41;97443.00;;;1.30
35582;BMP180;21687;48.900;9.188;2023-04-15T02:00:08;97445.00;;;1.30
35582;BMP180;21687;48.900;9.188;2023-04-15T02:02:34;97438.00;;;1.30
35582;BMP180;21687;48.900;9.188;2023-04-15T02:05:01;97441.00;;;1.20
35582;BMP180;21687;48.900;9.188;2023-04-15T02:07:30;97433.00;;;1.20
35582;BMP180;21687;48.900;9.188;2023-04-15T02:09:57;97432.00;;;1.30
35582;BMP180;21687;48.900;9.188;2023-04-15T02:12:24;97436.00;;;1.30
35582;BMP180;21687;48.900;9.188;2023-04-15T02:14:53;97436.00;;;1.20
35582;BMP180;21687;48.900;9.188;2023-04-15T02:17:20;97439.00;;;1.20
35582;BMP180;21687;48.900;9.188;2023-04-15T02:19:46;97432.00;;;1.20
35582;BMP180;21687;48.900;9.188;2023-04-15T02:22:13;97428.00;;;1.10
35582;BMP180;21687;48.900;9.188;2023-04-15T02:24:43;97418.00;;;1.10
35582;BMP180;21687;48.900;9.188;2023-04-15T02:27:15;97432.00;;;1.00
35582;BMP180;21687;48.900;9.188;2023-04-15T02:29:43;97429.00;;;1.00
35582;BMP180;21687;48.900;9.188;2023-04-15T02:32:10;97425.00;;;0.90
35582;BMP180;21687;48.900;9.188;2023-04-15T02:34:38;97436.00;;;1.00
35582;BMP180;21687;48.900;9.188;2023-04-15T02:37:07;97429.00;;;1.00
35582;BMP180;21687;48.900;9.188;2023-04-15T02:39:34;97428.00;;;1.10
35582;BMP180;21687;48.900;9.188;2023-04-15T02:42:00;97430.00;;;1.00
35582;BMP180;21687;48.900;9.188;2023-04-15T02:44:28;97412.00;;;1.00
35582;BMP180;21687;48.900;9.188;2023-04-15T02:46:54;97433.00;;;0.90
35582;BMP180;21687;48.900;9.188;2023-04-15T02:49:20;97427.00;;;1.00
35582;BMP180;21687;48.900;9.188;2023-04-15T02:51:48;97433.00;;;1.20
35582;BMP180;21687;48.900;9.188;2023-04-15T02:54:18;97440.00;;;1.20
35582;BMP180;21687;48.900;9.188;2023-04-15T02:56:45;97446.00;;;1.10
35582;BMP180;21687;48.900;9.188;2023-04-15T02:59:14;97445.00;;;1.20
35582;BMP180;21687;48.900;9.188;2023-04-15T03:01:41;97443.00;;;1.20
35582;BMP180;21687;48.900;9.188;2023-04-15T03:04:07;97433.00;;;1.10
35582;BMP180;21687;48.900;9.188;2023-04-15T03:06:34;97438.00;;;1.10
35582;BMP180;21687;48.900;9.188;2023-04-15T03:09:00;97442.00;;;1.00
35582;BMP180;21687;48.900;9.188;2023-04-15T03:11:29;97424.00;;;0.90
35582;BMP180;21687;48.900;9.188;2023-04-15T03:13:56;97428.00;;;0.90
35582;BMP180;21687;48.900;9.188;2023-04-15T03:16:23;97438.00;;;0.90
35582;BMP180;21687;48.900;9.188;2023-04-15T03:18:50;97426.00;;;0.90
35582;BMP180;21687;48.900;9.188;2023-04-15T03:21:16;97425.00;;;1.10
35582;BMP180;21687;48.900;9.188;2023-04-15T03:23:44;97399.00;;;1.20
35582;BMP180;21687;48.900;9.188;2023-04-15T03:26:27;97431.00;;;1.20
35582;BMP180;21687;48.900;9.188;2023-04-15T03:28:54;97398.00;;;1.30
35582;BMP180;21687;48.900;9.188;2023-04-15T03:31:20;97429.00;;;1.20
35582;BMP180;21687;48.900;9.188;2023-04-15T03:33:47;97428.00;;;1.20
35582;BMP180;21687;48.900;9.188;2023-04-15T03:36:13;97434.00;;;1.20
35582;BMP180;21687;48.900;9.188;2023-04-15T03:38:40;97431.00;;;1.20
35582;BMP180;21687;48.900;9.188;2023-04-15T03:41:06;97426.00;;;1.10
35582;BMP180;21687;48.900;9.188;2023-04-15T03:43:33;97424.00;;;1.10
35582;BMP180;21687;48.900;9.188;2023-04-15T03:45:59;97426.00;;;1.10
35582;BMP180;21687;48.900;9.188;2023-04-15T03:48:25;97425.00;;;1.20
35582;BMP180;21687;48.900;9.188;2023-04-15T03:50:52;97419.00;;;1.20
35582;BMP180;21687;48.900;9.188;2023-04-15T03:53:19;97413.00;;;1.10
35582;BMP180;21687;48.900;9.188;2023-04-15T03:55:46;97428.00;;;1.10
35582;BMP180;21687;48.900;9.188;2023-04-15T03:58:12;97405.00;;;1.00
35582;BMP180;21687;48.900;9.188;2023-04-15T04:00:39;97425.00;;;1.00
35582;BMP180;21687;48.900;9.188;2023-04-15T04:03:06;97429.00;;;1.00
35582;BMP180;21687;48.900;9.188;2023-04-15T04:05:33;97427.00;;;1.00
35582;BMP180;21687;48.900;9.188;2023-04-15T04:08:02;97423.00;;;0.90
35582;BMP180;21687;48.900;9.188;2023-04-15T04:10:28;97418.00;;;1.00
35582;BMP180;21687;48.900;9.188;2023-04-15T04:12:54;97423.00;;;1.00
35582;BMP180;21687;48.900;9.188;2023-04-15T04:15:21;97442.00;;;1.10
35582;BMP180;21687;48.900;9.188;2023-04-15T04:17:47;97430.00;;;1.10
35582;BMP180;21687;48.900;9.188;2023-04-15T04:20:13;97435.00;;;1.10
35582;BMP180;21687;48.900;9.188;2023-04-15T04:22:40;97441.00;;;1.10
35582;BMP180;21687;48.900;9.188;2023-04-15T04:25:07;97444.00;;;1.20
35582;BMP180;21687;48.900;9.188;2023-04-15T04:27:34;97447.00;;;1.10
35582;BMP180;21687;48.900;9.188;2023-04-15T04:30:00;97445.00;;;1.20
35582;BMP180;21687;48.900;9.188;2023-04-15T04:32:27;97447.00;;;1.10
35582;BMP180;21687;48.900;9.188;2023-04-15T04:34:53;97441.00;;;1.00
35582;BMP180;21687;48.900;9.188;2023-04-15T04:37:19;97448.00;;;0.90
35582;BMP180;21687;48.900;9.188;2023-04-15T04:39:45;97415.00;;;0.90
35582;BMP180;21687;48.900;9.188;2023-04-15T04:42:12;97439.00;;;0.80
35582;BMP180;21687;48.900;9.188;2023-04-15T04:44:38;97437.00;;;0.90
35582;BMP180;21687;48.900;9.188;2023-04-15T04:47:04;97442.00;;;1.00
35582;BMP180;21687;48.900;9.188;2023-04-15T04:49:32;97448.00;;;1.10
35582;BMP180;21687;48.900;9.188;2023-04-15T04:51:59;97438.00;;;1.10
35582;BMP180;21687;48.900;9.188;2023-04-15T04:54:25;97449.00;;;1.20
35582;BMP180;21687;48.900;9.188;2023-04-15T04:56:52;97445.00;;;1.20
35582;BMP180;21687;48.900;9.188;2023-04-15T04:59:19;97443.00;;;1.30
35582;BMP180;21687;48.900;9.188;2023-04-15T05:01:45;97446.00;;;1.30
35582;BMP180;21687;48.900;9.188;2023-04-15T05:04:11;97443.00;;;1.30
35582;BMP180;21687;48.900;9.188;2023-04-15T05:06:37;97456.00;;;1.40
35582;BMP180;21687;48.900;9.188;2023-04-15T05:09:04;97453.00;;;1.50
35582;BMP180;21687;48.900;9.188;2023-04-15T05:11:30;97453.00;;;1.50
35582;BMP180;21687;48.900;9.188;2023-04-15T05:13:56;97454.00;;;1.70
35582;BMP180;21687;48.900;9.188;2023-04-15T05:16:24;97447.00;;;1.90
35582;BMP180;21687;48.900;9.188;2023-04-15T05:18:51;97454.00;;;1.80
35582;BMP180;21687;48.900;9.188;2023-04-15T05:21:17;97443.00;;;1.90
35582;BMP180;21687;48.900;9.188;2023-04-15T05:23:44;97448.00;;;1.90
35582;BMP180;21687;48.900;9.188;2023-04-15T05:26:10;97450.00;;;1.90
35582;BMP180;21687;48.900;9.188;2023-04-15T05:28:36;97447.00;;;2.00
35582;BMP180;21687;48.900;9.188;2023-04-15T05:31:02;97434.00;;;2.00
35582;BMP180;21687;48.900;9.188;2023-04-15T05:33:29;97443.00;;;2.10
35582;BMP180;21687;48.900;9.188;2023-04-15T05:35:55;97439.00;;;2.10
35582;BMP180;21687;48.900;9.188;2023-04-15T05:38:21;97450.00;;;2.30
35582;BMP180;21687;48.900;9.188;2023-04-15T05:40:47;97456.00;;;2.40
35582;BMP180;21687;48.900;9.188;2023-04-15T05:43:14;97453.00;;;2.50
35582;BMP180;21687;48.900;9.188;2023-04-15T05:45:40;97457.00;;;2.60
35582;BMP180;21687;48.900;9.188;2023-04-15T05:48:06;97459.00;;;2.70
35582;BMP180;21687;48.900;9.188;2023-04-15T05:50:33;97463.00;;;2.90
35582;BMP180;21687;48.900;9.188;2023-04-15T05:52:59;97463.00;;;3.10
35582;BMP180;21687;48.900;9.188;2023-04-15T05:55:26;97472.00;;;3.20
35582;BMP180;21687;48.900;9.188;2023-04-15T05:57:52;97475.00;;;3.20
35582;BMP180;21687;48.900;9.188;2023-04-15T06:00:18;97462.00;;;3.20
35582;BMP180;21687;48.900;9.188;2023-04-15T06:02:45;97456.00;;;3.20
35582;BMP180;21687;48.900;9.188;2023-04-15T06:05:11;97463.00;;;3.30
35582;BMP180;21687;48.900;9.188;2023-04-15T06:07:38;97467.00;;;3.50
35582;BMP180;21687;48.900;9.188;2023-04-15T06:10:05;97462.00;;;3.60
35582;BMP180;21687;48.900;9.188;2023-04-15T06:12:32;97475.00;;;3.80
35582;BMP180;21687;48.900;9.188;2023-04-15T06:14:58;97470.00;;;4.00
35582;BMP180;21687;48.900;9.188;2023-04-15T06:17:24;97476.00;;;4.30
35582;BMP180;21687;48.900;9.188;2023-04-15T06:19:51;97469.00;;;4.40
35582;BMP180;21687;48.900;9.188;2023-04-15T06:22:24;97480.00;;;4.50
35582;BMP180;21687;48.900;9.188;2023-04-15T06:24:50;97484.00;;;4.50
35582;BMP180;21687;48.900;9.188;2023-04-15T06:27:17;97481.00;;;4.60
35582;BMP180;21687;48.900;9.188;2023-04-15T06:29:43;97495.00;;;4.70
35582;BMP180;21687;48.900;9.188;2023-04-15T06:32:10;97484.00;;;4.90
35582;BMP180;21687;48.900;9.188;2023-04-15T06:34:40;97493.00;;;4.90
35582;BMP180;21687;48.900;9.188;2023-04-15T06:37:06;97496.00;;;5.10
35582;BMP180;21687;48.900;9.188;2023-04-15T06:39:32;97495.00;;;5.10
35582;BMP180;21687;48.900;9.188;2023-04-15T06:41:58;97498.00;;;5.10
35582;BMP180;21687;48.900;9.188;2023-04-15T06:44:28;97498.00;;;5.30
35582;BMP180;21687;48.900;9.188;2023-04-15T06:46:54;97503.00;;;5.60
35582;BMP180;21687;48.900;9.188;2023-04-15T06:49:20;97499.00;;;6.10
35582;BMP180;21687;48.900;9.188;2023-04-15T06:51:47;97496.00;;;6.30
35582;BMP180;21687;48.900;9.188;2023-04-15T06:54:13;97500.00;;;6.50
35582;BMP180;21687;48.900;9.188;2023-04-15T06:56:39;97502.00;;;7.00
35582;BMP180;21687;48.900;9.188;2023-04-15T06:59:06;97502.00;;;7.30
35582;BMP180;21687;48.900;9.188;2023-04-15T07:01:33;97501.00;;;7.40
35582;BMP180;21687;48.900;9.188;2023-04-15T07:04:00;97510.00;;;7.50
35582;BMP180;21687;48.900;9.188;2023-04-15T07:06:26;97498.00;;;7.50
35582;BMP180;21687;48.900;9.188;2023-04-15T07:08:53;97497.00;;;7.60
35582;BMP180;21687;48.900;9.188;2023-04-15T07:11:20;97497.00;;;7.40
35582;BMP180;21687;48.900;9.188;2023-04-15T07:13:47;97498.00;;;7.30
35582;BMP180;21687;48.900;9.188;2023-04-15T07:16:13;97490.00;;;7.30
35582;BMP180;21687;48.900;9.188;2023-04-15T07:18:39;97495.00;;;7.40
35582;BMP180;21687;48.900;9.188;2023-04-15T07:21:05;97495.00;;;7.40
35582;BMP180;21687;48.900;9.188;2023-04-15T07:23:31;97492.00;;;7.60
35582;BMP180;21687;48.900;9.188;2023-04-15T07:25:58;97483.00;;;7.70
35582;BMP180;21687;48.900;9.188;2023-04-15T07:28:24;97495.00;;;7.70
35582;BMP180;21687;48.900;9.188;2023-04-15T07:30:50;97489.00;;;7.90
35582;BMP180;21687;48.900;9.188;2023-04-15T07:33:16;97499.00;;;8.10
35582;BMP180;21687;48.900;9.188;2023-04-15T07:35:43;97494.00;;;8.60
35582;BMP180;21687;48.900;9.188;2023-04-15T07:38:10;97498.00;;;9.00
35582;BMP180;21687;48.900;9.188;2023-04-15T07:40:38;97496.00;;;9.70
35582;BMP180;21687;48.900;9.188;2023-04-15T07:43:05;97499.00;;;9.80
35582;BMP180;21687;48.900;9.188;2023-04-15T07:45:32;97495.00;;;10.00
35582;BMP180;21687;48.900;9.188;2023-04-15T07:47:58;97505.00;;;9.80
35582;BMP180;21687;48.900;9.188;2023-04-15T07:50:24;97496.00;;;9.60
35582;BMP180;21687;48.900;9.188;2023-04-15T07:52:51;97495.00;;;9.50
35582;BMP180;21687;48.900;9.188;2023-04-15T07:55:18;97496.00;;;9.30
35582;BMP180;21687;48.900;9.188;2023-04-15T07:57:47;97500.00;;;9.80
35582;BMP180;21687;48.900;9.188;2023-04-15T08:00:14;97495.00;;;10.20
35582;BMP180;21687;48.900;9.188;2023-04-15T08:02:41;97500.00;;;10.40
35582;BMP180;21687;48.900;9.188;2023-04-15T08:05:09;97499.00;;;10.80
35582;BMP180;21687;48.900;9.188;2023-04-15T08:07:38;97494.00;;;10.80
35582;BMP180;21687;48.900;9.188;2023-04-15T08:10:05;97484.00;;;10.70
35582;BMP180;21687;48.900;9.188;2023-04-15T08:12:31;97495.00;;;10.80
35582;BMP180;21687;48.900;9.188;2023-04-15T08:14:57;97488.00;;;11.40
35582;BMP180;21687;48.900;9.188;2023-04-15T08:17:24;97487.00;;;11.60
35582;BMP180;21687;48.900;9.188;2023-04-15T08:19:50;97489.00;;;11.10
35582;BMP180;21687;48.900;9.188;2023-04-15T08:22:16;97491.00;;;11.60
35582;BMP180;21687;48.900;9.188;2023-04-15T08:24:44;97493.00;;;12.00
35582;BMP180;21687;48.900;9.188;2023-04-15T08:27:10;97496.00;;;12.40
35582;BMP180;21687;48.900;9.188;2023-04-15T08:29:37;97494.00;;;12.20
35582;BMP180;21687;48.900;9.188;2023-04-15T08:32:03;97493.00;;;12.70
35582;BMP180;21687;48.900;9.188;2023-04-15T08:34:30;97502.00;;;12.70
35582;BMP180;21687;48.900;9.188;2023-04-15T08:36:56;97497.00;;;12.50
35582;BMP180;21687;48.900;9.188;2023-04-15T08:39:22;97503.00;;;12.60
35582;BMP180;21687;48.900;9.188;2023-04-15T08:42:00;97504.00;;;12.50
35582;BMP180;21687;48.900;9.188;2023-04-15T08:44:31;97503.00;;;12.70
35582;BMP180;21687;48.900;9.188;2023-04-15T08:47:01;97509.00;;;13.00
35582;BMP180;21687;48.900;9.188;2023-04-15T08:49:31;97491.00;;;13.00
35582;BMP180;21687;48.900;9.188;2023-04-15T08:51:58;97504.00;;;13.10
35582;BMP180;21687;48.900;9.188;2023-04-15T08:54:26;97509.00;;;13.10
35582;BMP180;21687;48.900;9.188;2023-04-15T08:56:53;97513.00;;;13.20
35582;BMP180;21687;48.900;9.188;2023-04-15T08:59:20;97511.00;;;13.20
35582;BMP180;21687;48.900;9.188;2023-04-15T09:01:50;97503.00;;;13.50
35582;BMP180;21687;48.900;9.188;2023-04-15T09:04:18;97510.00;;;13.50
35582;BMP180;21687;48.900;9.188;2023-04-15T09:06:44;97511.00;;;13.40
35582;BMP180;21687;48.900;9.188;2023-04-15T09:09:12;97520.00;;;13.00
35582;BMP180;21687;48.900;9.188;2023-04-15T09:11:39;97517.00;;;13.00
35582;BMP180;21687;48.900;9.188;2023-04-15T09:14:05;97510.00;;;13.00
35582;BMP180;21687;48.900;9.188;2023-04-15T09:16:54;97516.00;;;13.10
35582;BMP180;21687;48.900;9.188;2023-04-15T09:19:23;97520.00;;;13.20
35582;BMP180;21687;48.900;9.188;2023-04-15T09:21:54;97525.00;;;12.90
35582;BMP180;21687;48.900;9.188;2023-04-15T09:24:22;97520.00;;;12.90
35582;BMP180;21687;48.900;9.188;2023-04-15T09:26:52;97525.00;;;12.90
35582;BMP180;21687;48.900;9.188;2023-04-15T09:29:19;97525.00;;;13.20
35582;BMP180;21687;48.900;9.188;2023-04-15T09:31:49;97536.00;;;13.10
35582;BMP180;21687;48.900;9.188;2023-04-15T09:34:15;97532.00;;;12.90
35582;BMP180;21687;48.900;9.188;2023-04-15T09:36:52;97534.00;;;12.90
35582;BMP180;21687;48.900;9.188;2023-04-15T09:39:19;97534.00;;;12.80
35582;BMP180;21687;48.900;9.188;2023-04-15T09:41:45;97537.00;;;12.80
35582;BMP180;21687;48.900;9.188;2023-04-15T09:44:22;97535.00;;;12.50
35582;BMP180;21687;48.900;9.188;2023-04-15T09:46:49;97529.00;;;12.80
35582;BMP180;21687;48.900;9.188;2023-04-15T09:49:15;97534.00;;;12.80
35582;BMP180;21687;48.900;9.188;2023-04-15T09:51:43;97535.00;;;12.80
35582;BMP180;21687;48.900;9.188;2023-04-15T09:54:09;97543.00;;;13.10
35582;BMP180;21687;48.900;9.188;2023-04-15T09:56:37;97542.00;;;12.90
35582;BMP180;21687;48.900;9.188;2023-04-15T09:59:07;97543.00;;;13.20
35582;BMP180;21687;48.900;9.188;2023-04-15T10:01:34;97543.00;;;13.30
35582;BMP180;21687;48.900;9.188;2023-04-15T10:04:04;97550.00;;;13.10
35582;BMP180;21687;48.900;9.188;2023-04-15T10:06:31;97544.00;;;13.00
35582;BMP180;21687;48.900;9.188;2023-04-15T10:08:58;97546.00;;;13.00
35582;BMP180;21687;48.900;9.188;2023-04-15T10:11:28;97544.00;;;13.10
35582;BMP180;21687;48.900;9.188;2023-04-15T10:13:56;97547.00;;;12.90
35582;BMP180;21687;48.900;9.188;2023-04-15T10:16:25;97544.00;;;13.40
35582;BMP180;21687;48.900;9.188;2023-04-15T10:18:55;97554.00;;;13.40
35582;BMP180;21687;48.900;9.188;2023-04-15T10:21:22;97549.00;;;13.20
35582;BMP180;21687;48.900;9.188;2023-04-15T10:23:50;97558.00;;;12.90
35582;BMP180;21687;48.900;9.188;2023-04-15T10:26:17;97558.00;;;13.10
35582;BMP180;21687;48.900;9.188;2023-04-15T10:28:44;97552.00;;;13.30
35582;BMP180;21687;48.900;9.188;2023-04-15T10:31:13;97561.00;;;13.00
35582;BMP180;21687;48.900;9.188;2023-04-15T10:33:43;97560.00;;;13.20
35582;BMP180;21687;48.900;9.188;2023-04-15T10:36:09;97552.00;;;13.20
35582;BMP180;21687;48.900;9.188;2023-04-15T10:38:41;97563.00;;;13.10
35582;BMP180;21687;48.900;9.188;2023-04-15T10:41:25;97568.00;;;12.60
35582;BMP180;21687;48.900;9.188;2023-04-15T10:44:00;97571.00;;;12.80
35582;BMP180;21687;48.900;9.188;2023-04-15T10:46:43;97570.00;;;12.60
35582;BMP180;21687;48.900;9.188;2023-04-15T10:49:14;97563.00;;;12.80
35582;BMP180;21687;48.900;9.188;2023-04-15T10:51:45;97569.00;;;12.70
35582;BMP180;21687;48.900;9.188;2023-04-15T10:54:16;97576.00;;;12.60
35582;BMP180;21687;48.900;9.188;2023-04-15T10:56:43;97569.00;;;12.80
35582;BMP180;21687;48.900;9.188;2023-04-15T10:59:09;97573.00;;;12.70
35582;BMP180;21687;48.900;9.188;2023-04-15T11:01:59;97572.00;;;13.10
35582;BMP180;21687;48.900;9.188;2023-04-15T11:07:34;97576.00;;;13.50
35582;BMP180;21687;48.900;9.188;2023-04-15T11:10:00;97565.00;;;13.40
35582;BMP180;21687;48.900;9.188;2023-04-15T11:12:34;97564.00;;;13.20
35582;BMP180;21687;48.900;9.188;2023-04-15T11:15:40;97568.00;;;13.20
35582;BMP180;21687;48.900;9.188;2023-04-15T11:18:19;97572.00;;;13.30
35582;BMP180;21687;48.900;9.188;2023-04-15T11:20:53;97571.00;;;13.10
35582;BMP180;21687;48.900;9.188;2023-04-15T11:23:39;97593.00;;;12.80
35582;BMP180;21687;48.900;9.188;2023-04-15T11:26:09;97576.00;;;12.70
35582;BMP180;21687;48.900;9.188;2023-04-15T11:28:44;97574.00;;;13.30
35582;BMP180;21687;48.900;9.188;2023-04-15T11:31:13;97576.00;;;13.50
35582;BMP180;21687;48.900;9.188;2023-04-15T11:33:57;97572.00;;;13.60
35582;BMP180;21687;48.900;9.188;2023-04-15T11:36:25;97572.00;;;13.80
35582;BMP180;21687;48.900;9.188;2023-04-15T11:38:56;97576.00;;;13.60
35582;BMP180;21687;48.900;9.188;2023-04-15T11:41:23;97572.00;;;13.60
35582;BMP180;21687;48.900;9.188;2023-04-15T11:43:50;97584.00;;;13.60
35582;BMP180;21687;48.900;9.188;2023-04-15T11:46:17;97576.00;;;13.60
35582;BMP180;21687;48.900;9.188;2023-04-15T11:48:45;97590.00;;;13.00
35582;BMP180;21687;48.900;9.188;2023-04-15T11:51:12;97585.00;;;12.70
35582;BMP180;21687;48.900;9.188;2023-04-15T11:53:43;97591.00;;;12.40
35582;BMP180;21687;48.900;9.188;2023-04-15T11:56:18;97588.00;;;12.50
35582;BMP180;21687;48.900;9.188;2023-04-15T11:58:45;97595.00;;;12.60
35582;BMP180;21687;48.900;9.188;2023-04-15T12:01:12;97600.00;;;12.70
35582;BMP180;21687;48.900;9.188;2023-04-15T12:03:46;97607.00;;;12.80
35582;BMP180;21687;48.900;9.188;2023-04-15T12:06:19;97608.00;;;12.60
35582;BMP180;21687;48.900;9.188;2023-04-15T12:09:01;97613.00;;;12.30
35582;BMP180;21687;48.900;9.188;2023-04-15T12:11:50;97624.00;;;12.10
35582;BMP180;21687;48.900;9.188;2023-04-15T12:16:46;97674.00;;;10.90
35582;BMP180;21687;48.900;9.188;2023-04-15T12:19:16;97704.00;;;9.90
35582;BMP180;21687;48.900;9.188;2023-04-15T12:21:45;97705.00;;;9.10
35582;BMP180;21687;48.900;9.188;2023-04-15T12:24:12;97715.00;;;8.50
35582;BMP180;21687;48.900;9.188;2023-04-15T12:26:54;97700.00;;;8.10
35582;BMP180;21687;48.900;9.188;2023-04-15T12:29:27;97724.00;;;8.10
35582;BMP180;21687;48.900;9.188;2023-04-15T12:31:54;97708.00;;;7.90
35582;BMP180;21687;48.900;9.188;2023-04-15T12:34:35;97680.00;;;7.90
35582;BMP180;21687;48.900;9.188;2023-04-15T12:37:04;97683.00;;;8.00
35582;BMP180;21687;48.900;9.188;2023-04-15T12:39:35;97677.00;;;8.10
35582;BMP180;21687;48.900;9.188;2023-04-15T12:42:03;97681.00;;;8.30
35582;BMP180;21687;48.900;9.188;2023-04-15T12:44:30;97692.00;;;8.60
35582;BMP180;21687;48.900;9.188;2023-04-15T12:46:58;97698.00;;;8.90
35582;BMP180;21687;48.900;9.188;2023-04-15T12:49:25;97698.00;;;9.00
35582;BMP180;21687;48.900;9.188;2023-04-15T12:51:56;97690.00;;;9.00
35582;BMP180;21687;48.900;9.188;2023-04-15T12:54:24;97699.00;;;9.10
35582;BMP180;21687;48.900;9.188;2023-04-15T12:56:52;97689.00;;;9.30
35582;BMP180;21687;48.900;9.188;2023-04-15T12:59:19;97699.00;;;9.40
35582;BMP180;21687;48.900;9.188;2023-04-15T13:01:47;97696.00;;;9.50
35582;BMP180;21687;48.900;9.188;2023-04-15T13:04:14;97702.00;;;9.50
35582;BMP180;21687;48.900;9.188;2023-04-15T13:06:41;97706.00;;;9.60
35582;BMP180;21687;48.900;9.188;2023-04-15T13:09:08;97702.00;;;9.80
35582;BMP180;21687;48.900;9.188;2023-04-15T13:11:34;97693.00;;;9.90
35582;BMP180;21687;48.900;9.188;2023-04-15T13:14:02;97710.00;;;10.00
35582;BMP180;21687;48.900;9.188;2023-04-15T13:16:29;97706.00;;;10.00
35582;BMP180;21687;48.900;9.188;2023-04-15T13:19:00;97724.00;;;10.20
35582;BMP180;21687;48.900;9.188;2023-04-15T13:21:26;97715.00;;;10.20
35582;BMP180;21687;48.900;9.188;2023-04-15T13:23:53;97720.00;;;10.20
35582;BMP180;21687;48.900;9.188;2023-04-15T13:26:20;97724.00;;;10.30
35582;BMP180;21687;48.900;9.188;2023-04-15T13:28:46;97718.00;;;10.60
35582;BMP180;21687;48.900;9.188;2023-04-15T13:31:13;97730.00;;;10.70
35582;BMP180;21687;48.900;9.188;2023-04-15T13:33:39;97717.00;;;10.90
35582;BMP180;21687;48.900;9.188;2023-04-15T13:36:05;97720.00;;;10.90
35582;BMP180;21687;48.900;9.188;2023-04-15T13:38:32;97718.00;;;11.00
35582;BMP180;21687;48.900;9.188;2023-04-15T13:40:58;97729.00;;;10.90
35582;BMP180;21687;48.900;9.188;2023-04-15T13:43:24;97737.00;;;10.90
35582;BMP180;21687;48.900;9.188;2023-04-15T13:45:51;97745.00;;;10.80
35582;BMP180;21687;48.900;9.188;2023-04-15T13:48:17;97740.00;;;10.80
35582;BMP180;21687;48.900;9.188;2023-04-15T13:50:44;97741.00;;;10.80
35582;BMP180;21687;48.900;9.188;2023-04-15T13:53:11;97756.00;;;10.80
35582;BMP180;21687;48.900;9.188;2023-04-15T13:55:38;97745.00;;;10.70
35582;BMP180;21687;48.900;9.188;2023-04-15T13:58:07;97752.00;;;10.80
35582;BMP180;21687;48.900;9.188;2023-04-15T14:00:33;97758.00;;;10.80
35582;BMP180;21687;48.900;9.188;2023-04-15T14:03:00;97747.00;;;10.60
35582;BMP180;21687;48.900;9.188;2023-04-15T14:05:26;97747.00;;;10.60
35582;BMP180;21687;48.900;9.188;2023-04-15T14:07:52;97745.00;;;10.60
35582;BMP180;21687;48.900;9.188;2023-04-15T14:10:19;97745.00;;;10.60
35582;BMP180;21687;48.900;9.188;2023-04-15T14:12:45;97755.00;;;10.60
35582;BMP180;21687;48.900;9.188;2023-04-15T14:15:11;97757.00;;;10.40
35582;BMP180;21687;48.900;9.188;2023-04-15T14:17:37;97762.00;;;10.40
35582;BMP180;21687;48.900;9.188;2023-04-15T14:20:06;97774.00;;;10.40
35582;BMP180;21687;48.900;9.188;2023-04-15T14:22:36;97779.00;;;10.50
35582;BMP180;21687;48.900;9.188;2023-04-15T14:25:03;97769.00;;;10.40
35582;BMP180;21687;48.900;9.188;2023-04-15T14:27:29;97784.00;;;10.50